sensor_id;sensor_type;location;lat;lon;timestamp;P1;durP1;ratioP1;P2;durP2;ratioP2
75356;SDS011;63946;51.986;5.930;2024-03-29T05:51:28;4.07;;;0.90;;
75356;SDS011;63946;51.986;5.930;2024-03-29T05:54:01;2.05;;;0.65;;
75356;SDS011;63946;51.986;5.930;2024-03-29T05:56:29;2.50;;;0.90;;
75356;SDS011;63946;51.986;5.930;2024-03-29T05:59:01;3.33;;;0.77;;
75356;SDS011;63946;51.986;5.930;2024-03-29T06:01:33;2.85;;;0.70;;
75356;SDS011;63946;51.986;5.930;2024-03-29T06:04:05;3.08;;;0.82;;
75356;SDS011;63946;51.986;5.930;2024-03-29T06:06:34;3.03;;;0.93;;
75356;SDS011;63946;51.986;5.930;2024-03-29T06:09:01;2.42;;;0.80;;
75356;SDS011;63946;51.986;5.930;2024-03-29T06:11:27;1.13;;;0.50;;
75356;SDS011;63946;51.986;5.930;2024-03-29T06:13:53;1.27;;;0.70;;
75356;SDS011;63946;51.986;5.930;2024-03-29T06:16:34;1.45;;;0.60;;
75356;SDS011;63946;51.986;5.930;2024-03-29T06:19:16;1.70;;;0.70;;
75356;SDS011;63946;51.986;5.930;2024-03-29T06:21:42;1.60;;;0.70;;
75356;SDS011;63946;51.986;5.930;2024-03-29T06:24:09;1.73;;;0.52;;
75356;SDS011;63946;51.986;5.930;2024-03-29T06:26:47;5.85;;;0.80;;
75356;SDS011;63946;51.986;5.930;2024-03-29T06:29:14;3.35;;;0.60;;
75356;SDS011;63946;51.986;5.930;2024-03-29T06:31:41;1.02;;;0.65;;
75356;SDS011;63946;51.986;5.930;2024-03-29T06:34:07;2.40;;;0.60;;
75356;SDS011;63946;51.986;5.930;2024-03-29T06:36:34;0.80;;;0.68;;
75356;SDS011;63946;51.986;5.930;2024-03-29T06:39:03;1.02;;;0.50;;
75356;SDS011;63946;51.986;5.930;2024-03-29T06:41:29;2.38;;;0.90;;
75356;SDS011;63946;51.986;5.930;2024-03-29T06:43:58;1.65;;;0.80;;
75356;SDS011;63946;51.986;5.930;2024-03-29T06:46:24;2.13;;;1.00;;
75356;SDS011;63946;51.986;5.930;2024-03-29T06:48:51;1.88;;;0.75;;
75356;SDS011;63946;51.986;5.930;2024-03-29T06:51:17;3.03;;;0.75;;
75356;SDS011;63946;51.986;5.930;2024-03-29T06:53:44;3.35;;;0.70;;
75356;SDS011;63946;51.986;5.930;2024-03-29T06:56:12;1.50;;;0.70;;
75356;SDS011;63946;51.986;5.930;2024-03-29T06:58:39;1.70;;;0.80;;
75356;SDS011;63946;51.986;5.930;2024-03-29T07:01:05;2.47;;;0.80;;
75356;SDS011;63946;51.986;5.930;2024-03-29T07:03:34;0.93;;;0.52;;
75356;SDS011;63946;51.986;5.930;2024-03-29T07:06:00;3.80;;;1.00;;
75356;SDS011;63946;51.986;5.930;2024-03-29T07:08:34;3.05;;;0.77;;
75356;SDS011;63946;51.986;5.930;2024-03-29T07:11:01;1.52;;;0.80;;
75356;SDS011;63946;51.986;5.930;2024-03-29T07:13:28;3.10;;;0.90;;
75356;SDS011;63946;51.986;5.930;2024-03-29T07:15:55;4.07;;;1.35;;
75356;SDS011;63946;51.986;5.930;2024-03-29T07:18:22;3.22;;;1.10;;
75356;SDS011;63946;51.986;5.930;2024-03-29T07:20:49;2.92;;;1.10;;
75356;SDS011;63946;51.986;5.930;2024-03-29T07:23:15;1.63;;;1.00;;
75356;SDS011;63946;51.986;5.930;2024-03-29T07:25:43;2.28;;;1.00;;
75356;SDS011;63946;51.986;5.930;2024-03-29T07:28:11;3.17;;;1.23;;
75356;SDS011;63946;51.986;5.930;2024-03-29T07:30:38;3.03;;;1.23;;
75356;SDS011;63946;51.986;5.930;2024-03-29T07:33:04;2.47;;;1.10;;
75356;SDS011;63946;51.986;5.930;2024-03-29T07:35:30;1.67;;;1.10;;
75356;SDS011;63946;51.986;5.930;2024-03-29T07:37:57;2.03;;;1.13;;
75356;SDS011;63946;51.986;5.930;2024-03-29T07:40:23;2.97;;;1.17;;
75356;SDS011;63946;51.986;5.930;2024-03-29T07:42:50;2.05;;;0.93;;
75356;SDS011;63946;51.986;5.930;2024-03-29T07:45:16;3.00;;;1.13;;
75356;SDS011;63946;51.986;5.930;2024-03-29T07:47:45;3.50;;;1.35;;
75356;SDS011;63946;51.986;5.930;2024-03-29T07:50:15;2.60;;;1.23;;
75356;SDS011;63946;51.986;5.930;2024-03-29T07:52:41;5.68;;;1.67;;
75356;SDS011;63946;51.986;5.930;2024-03-29T07:55:11;1.55;;;1.27;;
75356;SDS011;63946;51.986;5.930;2024-03-29T07:57:37;5.63;;;1.67;;
75356;SDS011;63946;51.986;5.930;2024-03-29T08:00:06;2.25;;;1.75;;
75356;SDS011;63946;51.986;5.930;2024-03-29T08:02:33;2.20;;;1.33;;
75356;SDS011;63946;51.986;5.930;2024-03-29T08:05:05;1.63;;;1.17;;
75356;SDS011;63946;51.986;5.930;2024-03-29T08:07:32;2.65;;;1.42;;
75356;SDS011;63946;51.986;5.930;2024-03-29T08:10:01;2.53;;;1.63;;
75356;SDS011;63946;51.986;5.930;2024-03-29T08:12:27;1.90;;;1.20;;
75356;SDS011;63946;51.986;5.930;2024-03-29T08:14:53;2.65;;;1.67;;
75356;SDS011;63946;51.986;5.930;2024-03-29T08:17:20;1.58;;;1.30;;
75356;SDS011;63946;51.986;5.930;2024-03-29T08:19:46;4.72;;;1.27;;
75356;SDS011;63946;51.986;5.930;2024-03-29T08:22:13;2.22;;;1.10;;
75356;SDS011;63946;51.986;5.930;2024-03-29T08:24:42;1.88;;;1.27;;
75356;SDS011;63946;51.986;5.930;2024-03-29T08:27:08;4.75;;;1.13;;
75356;SDS011;63946;51.986;5.930;2024-03-29T08:29:37;3.28;;;1.40;;
75356;SDS011;63946;51.986;5.930;2024-03-29T08:32:04;2.05;;;1.05;;
75356;SDS011;63946;51.986;5.930;2024-03-29T08:34:30;1.90;;;1.30;;
75356;SDS011;63946;51.986;5.930;2024-03-29T08:36:56;2.08;;;1.02;;
75356;SDS011;63946;51.986;5.930;2024-03-29T08:39:25;2.05;;;1.10;;
75356;SDS011;63946;51.986;5.930;2024-03-29T08:41:51;3.13;;;1.20;;
75356;SDS011;63946;51.986;5.930;2024-03-29T08:44:23;2.45;;;1.20;;
75356;SDS011;63946;51.986;5.930;2024-03-29T08:46:51;2.38;;;1.48;;
75356;SDS011;63946;51.986;5.930;2024-03-29T08:49:17;2.53;;;1.38;;
75356;SDS011;63946;51.986;5.930;2024-03-29T08:51:43;3.03;;;1.30;;
75356;SDS011;63946;51.986;5.930;2024-03-29T08:54:09;3.08;;;1.20;;
75356;SDS011;63946;51.986;5.930;2024-03-29T08:56:38;3.95;;;1.60;;
75356;SDS011;63946;51.986;5.930;2024-03-29T08:59:04;3.25;;;1.38;;
75356;SDS011;63946;51.986;5.930;2024-03-29T09:01:31;2.15;;;1.30;;
75356;SDS011;63946;51.986;5.930;2024-03-29T09:03:58;2.13;;;1.42;;
75356;SDS011;63946;51.986;5.930;2024-03-29T09:06:24;2.78;;;1.10;;
75356;SDS011;63946;51.986;5.930;2024-03-29T09:08:52;1.80;;;1.20;;
75356;SDS011;63946;51.986;5.930;2024-03-29T09:11:18;2.10;;;1.40;;
75356;SDS011;63946;51.986;5.930;2024-03-29T09:13:45;4.07;;;1.42;;
75356;SDS011;63946;51.986;5.930;2024-03-29T09:16:11;3.60;;;1.30;;
75356;SDS011;63946;51.986;5.930;2024-03-29T09:18:37;1.88;;;0.95;;
75356;SDS011;63946;51.986;5.930;2024-03-29T09:21:03;2.22;;;1.20;;
75356;SDS011;63946;51.986;5.930;2024-03-29T09:23:29;1.25;;;1.05;;
75356;SDS011;63946;51.986;5.930;2024-03-29T09:25:56;3.47;;;1.13;;
75356;SDS011;63946;51.986;5.930;2024-03-29T09:28:23;1.60;;;1.00;;
75356;SDS011;63946;51.986;5.930;2024-03-29T09:30:49;1.90;;;0.88;;
75356;SDS011;63946;51.986;5.930;2024-03-29T09:33:15;1.83;;;1.00;;
75356;SDS011;63946;51.986;5.930;2024-03-29T09:35:42;3.25;;;1.40;;
75356;SDS011;63946;51.986;5.930;2024-03-29T09:38:08;3.15;;;1.23;;
75356;SDS011;63946;51.986;5.930;2024-03-29T09:40:34;5.40;;;1.20;;
75356;SDS011;63946;51.986;5.930;2024-03-29T09:43:00;1.60;;;0.90;;
75356;SDS011;63946;51.986;5.930;2024-03-29T09:45:32;2.15;;;1.45;;
75356;SDS011;63946;51.986;5.930;2024-03-29T09:48:06;3.78;;;1.35;;
75356;SDS011;63946;51.986;5.930;2024-03-29T09:50:36;5.00;;;1.23;;
75356;SDS011;63946;51.986;5.930;2024-03-29T09:53:04;2.83;;;1.17;;
75356;SDS011;63946;51.986;5.930;2024-03-29T09:55:30;1.77;;;1.13;;
75356;SDS011;63946;51.986;5.930;2024-03-29T09:57:57;2.03;;;0.93;;
75356;SDS011;63946;51.986;5.930;2024-03-29T10:00:23;3.17;;;1.52;;
75356;SDS011;63946;51.986;5.930;2024-03-29T10:02:50;2.97;;;1.30;;
75356;SDS011;63946;51.986;5.930;2024-03-29T10:07:47;3.47;;;1.33;;
75356;SDS011;63946;51.986;5.930;2024-03-29T10:10:13;1.95;;;1.25;;
75356;SDS011;63946;51.986;5.930;2024-03-29T10:12:40;2.45;;;1.30;;
75356;SDS011;63946;51.986;5.930;2024-03-29T10:15:06;3.08;;;1.40;;
75356;SDS011;63946;51.986;5.930;2024-03-29T10:17:34;3.42;;;1.13;;
75356;SDS011;63946;51.986;5.930;2024-03-29T10:20:01;2.33;;;1.40;;
75356;SDS011;63946;51.986;5.930;2024-03-29T10:22:27;2.92;;;1.50;;
75356;SDS011;63946;51.986;5.930;2024-03-29T10:24:54;4.03;;;1.20;;
75356;SDS011;63946;51.986;5.930;2024-03-29T10:27:20;3.85;;;1.30;;
75356;SDS011;63946;51.986;5.930;2024-03-29T10:29:46;3.58;;;1.48;;
75356;SDS011;63946;51.986;5.930;2024-03-29T10:32:12;2.35;;;1.02;;
75356;SDS011;63946;51.986;5.930;2024-03-29T10:34:38;1.75;;;1.00;;
75356;SDS011;63946;51.986;5.930;2024-03-29T10:37:04;3.65;;;1.27;;
75356;SDS011;63946;51.986;5.930;2024-03-29T10:39:31;2.25;;;1.23;;
75356;SDS011;63946;51.986;5.930;2024-03-29T10:41:57;4.53;;;1.48;;
75356;SDS011;63946;51.986;5.930;2024-03-29T10:44:24;1.70;;;1.10;;
75356;SDS011;63946;51.986;5.930;2024-03-29T10:46:52;1.80;;;1.25;;
75356;SDS011;63946;51.986;5.930;2024-03-29T10:49:20;1.70;;;1.08;;
75356;SDS011;63946;51.986;5.930;2024-03-29T10:51:48;3.83;;;1.55;;
75356;SDS011;63946;51.986;5.930;2024-03-29T10:54:16;3.72;;;1.35;;
75356;SDS011;63946;51.986;5.930;2024-03-29T10:56:43;2.45;;;1.25;;
75356;SDS011;63946;51.986;5.930;2024-03-29T10:59:27;2.72;;;1.40;;
75356;SDS011;63946;51.986;5.930;2024-03-29T11:02:13;3.15;;;1.50;;
75356;SDS011;63946;51.986;5.930;2024-03-29T11:04:55;3.50;;;1.40;;
75356;SDS011;63946;51.986;5.930;2024-03-29T11:07:26;2.75;;;1.55;;
75356;SDS011;63946;51.986;5.930;2024-03-29T11:09:54;2.22;;;1.35;;
75356;SDS011;63946;51.986;5.930;2024-03-29T11:12:25;2.13;;;1.50;;
75356;SDS011;63946;51.986;5.930;2024-03-29T11:14:55;2.80;;;1.70;;
75356;SDS011;63946;51.986;5.930;2024-03-29T11:17:29;4.70;;;1.90;;
75356;SDS011;63946;51.986;5.930;2024-03-29T11:19:57;2.30;;;1.58;;
75356;SDS011;63946;51.986;5.930;2024-03-29T11:22:25;3.60;;;1.40;;
75356;SDS011;63946;51.986;5.930;2024-03-29T11:24:53;2.90;;;1.15;;
75356;SDS011;63946;51.986;5.930;2024-03-29T11:27:22;4.43;;;1.20;;
75356;SDS011;63946;51.986;5.930;2024-03-29T11:29:49;2.20;;;1.30;;
75356;SDS011;63946;51.986;5.930;2024-03-29T11:32:15;2.35;;;1.40;;
75356;SDS011;63946;51.986;5.930;2024-03-29T11:34:44;1.40;;;1.00;;
75356;SDS011;63946;51.986;5.930;2024-03-29T11:37:11;3.53;;;1.42;;
75356;SDS011;63946;51.986;5.930;2024-03-29T11:39:38;3.17;;;1.20;;
75356;SDS011;63946;51.986;5.930;2024-03-29T11:42:04;1.60;;;1.10;;
75356;SDS011;63946;51.986;5.930;2024-03-29T11:44:30;3.00;;;1.40;;
75356;SDS011;63946;51.986;5.930;2024-03-29T11:46:57;1.77;;;1.10;;
75356;SDS011;63946;51.986;5.930;2024-03-29T11:49:26;2.75;;;1.38;;
75356;SDS011;63946;51.986;5.930;2024-03-29T11:52:01;2.35;;;1.30;;
75356;SDS011;63946;51.986;5.930;2024-03-29T11:54:38;4.18;;;1.25;;
75356;SDS011;63946;51.986;5.930;2024-03-29T11:57:05;3.88;;;1.45;;
75356;SDS011;63946;51.986;5.930;2024-03-29T11:59:31;1.63;;;1.10;;
75356;SDS011;63946;51.986;5.930;2024-03-29T12:01:59;1.42;;;1.02;;
75356;SDS011;63946;51.986;5.930;2024-03-29T12:04:28;2.40;;;1.13;;
75356;SDS011;63946;51.986;5.930;2024-03-29T12:06:54;2.25;;;1.25;;
75356;SDS011;63946;51.986;5.930;2024-03-29T12:09:21;2.10;;;1.00;;
75356;SDS011;63946;51.986;5.930;2024-03-29T12:11:47;2.15;;;0.75;;
75356;SDS011;63946;51.986;5.930;2024-03-29T12:14:15;1.92;;;1.10;;
75356;SDS011;63946;51.986;5.930;2024-03-29T12:16:42;1.40;;;0.80;;
75356;SDS011;63946;51.986;5.930;2024-03-29T12:19:24;1.35;;;0.73;;
75356;SDS011;63946;51.986;5.930;2024-03-29T12:21:50;1.30;;;0.80;;
75356;SDS011;63946;51.986;5.930;2024-03-29T12:24:17;0.90;;;0.80;;
75356;SDS011;63946;51.986;5.930;2024-03-29T12:26:43;2.17;;;0.82;;
75356;SDS011;63946;51.986;5.930;2024-03-29T12:29:09;0.85;;;0.65;;
75356;SDS011;63946;51.986;5.930;2024-03-29T12:31:36;1.35;;;0.80;;
75356;SDS011;63946;51.986;5.930;2024-03-29T12:34:02;1.10;;;0.80;;
75356;SDS011;63946;51.986;5.930;2024-03-29T12:36:28;4.25;;;0.95;;
75356;SDS011;63946;51.986;5.930;2024-03-29T12:38:58;2.30;;;1.10;;
75356;SDS011;63946;51.986;5.930;2024-03-29T12:41:24;1.10;;;0.60;;
75356;SDS011;63946;51.986;5.930;2024-03-29T12:43:51;1.75;;;0.80;;
75356;SDS011;63946;51.986;5.930;2024-03-29T12:46:17;2.25;;;0.70;;
75356;SDS011;63946;51.986;5.930;2024-03-29T12:48:44;2.08;;;0.90;;
75356;SDS011;63946;51.986;5.930;2024-03-29T12:51:13;2.10;;;0.80;;
75356;SDS011;63946;51.986;5.930;2024-03-29T12:53:39;1.02;;;0.73;;
75356;SDS011;63946;51.986;5.930;2024-03-29T12:56:05;1.35;;;0.80;;
75356;SDS011;63946;51.986;5.930;2024-03-29T12:58:31;1.98;;;0.90;;
75356;SDS011;63946;51.986;5.930;2024-03-29T13:00:57;2.05;;;0.90;;
75356;SDS011;63946;51.986;5.930;2024-03-29T13:03:24;4.88;;;1.00;;
75356;SDS011;63946;51.986;5.930;2024-03-29T13:05:50;1.70;;;0.80;;
75356;SDS011;63946;51.986;5.930;2024-03-29T13:08:16;1.80;;;0.88;;
75356;SDS011;63946;51.986;5.930;2024-03-29T13:10:42;2.13;;;0.90;;
75356;SDS011;63946;51.986;5.930;2024-03-29T13:13:10;1.75;;;0.82;;
75356;SDS011;63946;51.986;5.930;2024-03-29T13:15:37;3.95;;;1.00;;
75356;SDS011;63946;51.986;5.930;2024-03-29T13:18:05;1.30;;;0.60;;
75356;SDS011;63946;51.986;5.930;2024-03-29T13:20:32;1.45;;;0.90;;
75356;SDS011;63946;51.986;5.930;2024-03-29T13:23:01;2.05;;;0.98;;
75356;SDS011;63946;51.986;5.930;2024-03-29T13:25:27;1.63;;;0.70;;
75356;SDS011;63946;51.986;5.930;2024-03-29T13:27:54;1.58;;;0.52;;
75356;SDS011;63946;51.986;5.930;2024-03-29T13:30:22;0.63;;;0.50;;
75356;SDS011;63946;51.986;5.930;2024-03-29T13:32:49;1.25;;;0.75;;
75356;SDS011;63946;51.986;5.930;2024-03-29T13:35:16;1.10;;;0.90;;
75356;SDS011;63946;51.986;5.930;2024-03-29T13:37:42;0.98;;;0.68;;
75356;SDS011;63946;51.986;5.930;2024-03-29T13:40:09;2.30;;;0.80;;
75356;SDS011;63946;51.986;5.930;2024-03-29T13:42:36;1.13;;;0.77;;
75356;SDS011;63946;51.986;5.930;2024-03-29T13:45:06;0.90;;;0.80;;
75356;SDS011;63946;51.986;5.930;2024-03-29T13:47:34;1.83;;;0.65;;
75356;SDS011;63946;51.986;5.930;2024-03-29T13:50:04;1.67;;;0.60;;
75356;SDS011;63946;51.986;5.930;2024-03-29T13:52:31;1.50;;;0.68;;
75356;SDS011;63946;51.986;5.930;2024-03-29T13:54:57;1.10;;;0.38;;
75356;SDS011;63946;51.986;5.930;2024-03-29T13:57:24;1.30;;;0.60;;
75356;SDS011;63946;51.986;5.930;2024-03-29T13:59:50;2.17;;;0.60;;
75356;SDS011;63946;51.986;5.930;2024-03-29T14:02:17;2.83;;;0.43;;
75356;SDS011;63946;51.986;5.930;2024-03-29T14:04:44;1.23;;;0.57;;
75356;SDS011;63946;51.986;5.930;2024-03-29T14:07:13;1.52;;;0.70;;
75356;SDS011;63946;51.986;5.930;2024-03-29T14:09:40;2.05;;;0.40;;
75356;SDS011;63946;51.986;5.930;2024-03-29T14:12:07;0.60;;;0.45;;
75356;SDS011;63946;51.986;5.930;2024-03-29T14:14:33;1.52;;;0.75;;
75356;SDS011;63946;51.986;5.930;2024-03-29T14:17:00;0.93;;;0.60;;
75356;SDS011;63946;51.986;5.930;2024-03-29T14:19:29;1.40;;;0.57;;
75356;SDS011;63946;51.986;5.930;2024-03-29T14:21:56;3.90;;;0.60;;
75356;SDS011;63946;51.986;5.930;2024-03-29T14:24:23;0.98;;;0.60;;
75356;SDS011;63946;51.986;5.930;2024-03-29T14:26:50;0.70;;;0.50;;
75356;SDS011;63946;51.986;5.930;2024-03-29T14:29:17;3.05;;;0.47;;
75356;SDS011;63946;51.986;5.930;2024-03-29T14:31:47;1.48;;;0.60;;
75356;SDS011;63946;51.986;5.930;2024-03-29T14:34:14;0.80;;;0.80;;
75356;SDS011;63946;51.986;5.930;2024-03-29T14:36:41;1.65;;;0.70;;
75356;SDS011;63946;51.986;5.930;2024-03-29T14:39:08;1.02;;;0.60;;
75356;SDS011;63946;51.986;5.930;2024-03-29T14:41:40;0.68;;;0.40;;
75356;SDS011;63946;51.986;5.930;2024-03-29T14:44:10;0.80;;;0.75;;
75356;SDS011;63946;51.986;5.930;2024-03-29T14:46:49;1.02;;;0.73;;
75356;SDS011;63946;51.986;5.930;2024-03-29T14:49:15;1.95;;;0.70;;
75356;SDS011;63946;51.986;5.930;2024-03-29T14:51:41;2.10;;;0.60;;
75356;SDS011;63946;51.986;5.930;2024-03-29T14:54:07;1.40;;;0.45;;
75356;SDS011;63946;51.986;5.930;2024-03-29T14:56:36;2.17;;;0.50;;
75356;SDS011;63946;51.986;5.930;2024-03-29T14:59:08;1.17;;;0.60;;
75356;SDS011;63946;51.986;5.930;2024-03-29T15:01:45;1.40;;;0.82;;
75356;SDS011;63946;51.986;5.930;2024-03-29T15:04:19;0.75;;;0.50;;
75356;SDS011;63946;51.986;5.930;2024-03-29T15:07:00;0.70;;;0.60;;
75356;SDS011;63946;51.986;5.930;2024-03-29T15:09:27;1.02;;;0.60;;
75356;SDS011;63946;51.986;5.930;2024-03-29T15:11:59;1.20;;;0.57;;
75356;SDS011;63946;51.986;5.930;2024-03-29T15:14:27;1.08;;;0.50;;
75356;SDS011;63946;51.986;5.930;2024-03-29T15:16:54;0.63;;;0.47;;
75356;SDS011;63946;51.986;5.930;2024-03-29T15:19:26;1.38;;;0.77;;
75356;SDS011;63946;51.986;5.930;2024-03-29T15:21:54;1.40;;;0.60;;
75356;SDS011;63946;51.986;5.930;2024-03-29T15:24:23;1.05;;;0.60;;
75356;SDS011;63946;51.986;5.930;2024-03-29T15:26:49;1.17;;;0.63;;
75356;SDS011;63946;51.986;5.930;2024-03-29T15:29:18;2.45;;;0.60;;
75356;SDS011;63946;51.986;5.930;2024-03-29T15:31:49;0.85;;;0.65;;
75356;SDS011;63946;51.986;5.930;2024-03-29T15:34:18;1.60;;;0.70;;
75356;SDS011;63946;51.986;5.930;2024-03-29T15:36:45;0.55;;;0.40;;
75356;SDS011;63946;51.986;5.930;2024-03-29T15:39:13;1.88;;;1.33;;
75356;SDS011;63946;51.986;5.930;2024-03-29T15:41:40;1.17;;;0.75;;
75356;SDS011;63946;51.986;5.930;2024-03-29T15:44:21;1.08;;;0.70;;
75356;SDS011;63946;51.986;5.930;2024-03-29T15:46:50;1.63;;;0.60;;
75356;SDS011;63946;51.986;5.930;2024-03-29T15:49:16;1.38;;;0.38;;
75356;SDS011;63946;51.986;5.930;2024-03-29T15:51:43;1.92;;;0.82;;
75356;SDS011;63946;51.986;5.930;2024-03-29T15:54:12;2.42;;;0.70;;
75356;SDS011;63946;51.986;5.930;2024-03-29T15:56:42;0.60;;;0.60;;
75356;SDS011;63946;51.986;5.930;2024-03-29T15:59:18;1.63;;;0.60;;
75356;SDS011;63946;51.986;5.930;2024-03-29T16:01:48;0.77;;;0.52;;
75356;SDS011;63946;51.986;5.930;2024-03-29T16:04:14;0.80;;;0.70;;
75356;SDS011;63946;51.986;5.930;2024-03-29T16:06:41;1.20;;;0.70;;
75356;SDS011;63946;51.986;5.930;2024-03-29T16:09:07;1.15;;;0.60;;
75356;SDS011;63946;51.986;5.930;2024-03-29T16:11:34;2.33;;;0.75;;
75356;SDS011;63946;51.986;5.930;2024-03-29T16:14:02;1.77;;;0.55;;
75356;SDS011;63946;51.986;5.930;2024-03-29T16:16:31;1.55;;;0.82;;
75356;SDS011;63946;51.986;5.930;2024-03-29T16:18:58;1.35;;;0.60;;
75356;SDS011;63946;51.986;5.930;2024-03-29T16:21:25;0.77;;;0.50;;
75356;SDS011;63946;51.986;5.930;2024-03-29T16:23:54;1.55;;;0.50;;
75356;SDS011;63946;51.986;5.930;2024-03-29T16:26:21;1.45;;;0.63;;
75356;SDS011;63946;51.986;5.930;2024-03-29T16:28:50;1.60;;;0.90;;
75356;SDS011;63946;51.986;5.930;2024-03-29T16:31:17;1.83;;;0.70;;
75356;SDS011;63946;51.986;5.930;2024-03-29T16:33:43;1.48;;;0.65;;
75356;SDS011;63946;51.986;5.930;2024-03-29T16:36:11;0.70;;;0.50;;
75356;SDS011;63946;51.986;5.930;2024-03-29T16:38:40;0.85;;;0.73;;
75356;SDS011;63946;51.986;5.930;2024-03-29T16:41:07;1.48;;;0.60;;
75356;SDS011;63946;51.986;5.930;2024-03-29T16:43:33;1.55;;;0.60;;
75356;SDS011;63946;51.986;5.930;2024-03-29T16:46:00;1.63;;;0.60;;
75356;SDS011;63946;51.986;5.930;2024-03-29T16:48:29;1.52;;;0.80;;
75356;SDS011;63946;51.986;5.930;2024-03-29T16:50:55;1.25;;;0.80;;
75356;SDS011;63946;51.986;5.930;2024-03-29T16:53:26;1.98;;;0.77;;
75356;SDS011;63946;51.986;5.930;2024-03-29T16:55:56;2.17;;;0.90;;
75356;SDS011;63946;51.986;5.930;2024-03-29T16:58:23;0.70;;;0.60;;
75356;SDS011;63946;51.986;5.930;2024-03-29T17:00:50;2.97;;;0.60;;
75356;SDS011;63946;51.986;5.930;2024-03-29T17:03:18;0.70;;;0.60;;
75356;SDS011;63946;51.986;5.930;2024-03-29T17:05:45;1.63;;;0.90;;
75356;SDS011;63946;51.986;5.930;2024-03-29T17:08:14;0.85;;;0.47;;
75356;SDS011;63946;51.986;5.930;2024-03-29T17:10:43;1.58;;;0.70;;
75356;SDS011;63946;51.986;5.930;2024-03-29T17:13:09;1.05;;;0.80;;
75356;SDS011;63946;51.986;5.930;2024-03-29T17:15:38;1.85;;;0.63;;
75356;SDS011;63946;51.986;5.930;2024-03-29T17:18:05;1.88;;;0.50;;
75356;SDS011;63946;51.986;5.930;2024-03-29T17:20:31;1.02;;;0.90;;
75356;SDS011;63946;51.986;5.930;2024-03-29T17:22:57;1.58;;;0.70;;
75356;SDS011;63946;51.986;5.930;2024-03-29T17:25:24;2.47;;;0.80;;
75356;SDS011;63946;51.986;5.930;2024-03-29T17:27:50;0.98;;;0.60;;
75356;SDS011;63946;51.986;5.930;2024-03-29T17:30:16;1.13;;;0.60;;
75356;SDS011;63946;51.986;5.930;2024-03-29T17:32:46;0.43;;;0.43;;
75356;SDS011;63946;51.986;5.930;2024-03-29T17:35:15;3.17;;;0.88;;
75356;SDS011;63946;51.986;5.930;2024-03-29T17:37:44;3.33;;;0.80;;
75356;SDS011;63946;51.986;5.930;2024-03-29T17:40:16;2.60;;;0.85;;
75356;SDS011;63946;51.986;5.930;2024-03-29T17:42:54;1.92;;;0.90;;
75356;SDS011;63946;51.986;5.930;2024-03-29T17:45:29;1.88;;;0.80;;
75356;SDS011;63946;51.986;5.930;2024-03-29T17:48:04;0.93;;;0.77;;
75356;SDS011;63946;51.986;5.930;2024-03-29T17:50:36;1.58;;;0.60;;
75356;SDS011;63946;51.986;5.930;2024-03-29T17:53:02;1.30;;;0.73;;
75356;SDS011;63946;51.986;5.930;2024-03-29T17:55:36;0.88;;;0.52;;
75356;SDS011;63946;51.986;5.930;2024-03-29T17:58:03;1.75;;;0.68;;
75356;SDS011;63946;51.986;5.930;2024-03-29T18:00:54;2.70;;;0.82;;
75356;SDS011;63946;51.986;5.930;2024-03-29T18:06:03;1.80;;;0.70;;
75356;SDS011;63946;51.986;5.930;2024-03-29T18:08:53;1.60;;;0.63;;
75356;SDS011;63946;51.986;5.930;2024-03-29T18:11:25;0.90;;;0.63;;
75356;SDS011;63946;51.986;5.930;2024-03-29T18:13:52;2.63;;;0.70;;
75356;SDS011;63946;51.986;5.930;2024-03-29T18:16:19;3.58;;;1.00;;
75356;SDS011;63946;51.986;5.930;2024-03-29T18:18:51;3.42;;;1.08;;
75356;SDS011;63946;51.986;5.930;2024-03-29T18:21:18;3.33;;;0.82;;
75356;SDS011;63946;51.986;5.930;2024-03-29T18:23:47;1.08;;;0.77;;
75356;SDS011;63946;51.986;5.930;2024-03-29T18:26:13;0.85;;;0.75;;
75356;SDS011;63946;51.986;5.930;2024-03-29T18:28:39;1.08;;;0.80;;
75356;SDS011;63946;51.986;5.930;2024-03-29T18:31:08;2.50;;;0.73;;
75356;SDS011;63946;51.986;5.930;2024-03-29T18:36:18;2.10;;;1.00;;
75356;SDS011;63946;51.986;5.930;2024-03-29T18:38:44;1.30;;;1.00;;
75356;SDS011;63946;51.986;5.930;2024-03-29T18:41:11;1.70;;;0.93;;
75356;SDS011;63946;51.986;5.930;2024-03-29T18:43:40;2.28;;;0.80;;
75356;SDS011;63946;51.986;5.930;2024-03-29T18:46:10;1.65;;;1.00;;
75356;SDS011;63946;51.986;5.930;2024-03-29T18:48:36;1.55;;;0.68;;
75356;SDS011;63946;51.986;5.930;2024-03-29T18:51:03;2.63;;;1.10;;
75356;SDS011;63946;51.986;5.930;2024-03-29T18:53:35;1.13;;;0.90;;
75356;SDS011;63946;51.986;5.930;2024-03-29T18:56:02;3.15;;;0.80;;
75356;SDS011;63946;51.986;5.930;2024-03-29T18:58:29;1.15;;;0.90;;
75356;SDS011;63946;51.986;5.930;2024-03-29T19:00:55;1.85;;;0.90;;
75356;SDS011;63946;51.986;5.930;2024-03-29T19:03:27;2.72;;;1.00;;
75356;SDS011;63946;51.986;5.930;2024-03-29T19:05:53;1.33;;;0.90;;
75356;SDS011;63946;51.986;5.930;2024-03-29T19:08:27;2.78;;;1.13;;
75356;SDS011;63946;51.986;5.930;2024-03-29T19:11:00;1.92;;;1.10;;
75356;SDS011;63946;51.986;5.930;2024-03-29T19:13:29;2.38;;;1.20;;
75356;SDS011;63946;51.986;5.930;2024-03-29T19:15:59;3.00;;;1.10;;
75356;SDS011;63946;51.986;5.930;2024-03-29T19:18:25;1.80;;;1.15;;
75356;SDS011;63946;51.986;5.930;2024-03-29T19:20:54;1.65;;;1.02;;
75356;SDS011;63946;51.986;5.930;2024-03-29T19:23:26;1.33;;;0.85;;
75356;SDS011;63946;51.986;5.930;2024-03-29T19:25:53;3.33;;;0.90;;
75356;SDS011;63946;51.986;5.930;2024-03-29T19:28:19;2.70;;;0.90;;
75356;SDS011;63946;51.986;5.930;2024-03-29T19:30:48;3.40;;;1.00;;
75356;SDS011;63946;51.986;5.930;2024-03-29T19:33:17;1.88;;;1.10;;
75356;SDS011;63946;51.986;5.930;2024-03-29T19:35:47;3.35;;;1.13;;
75356;SDS011;63946;51.986;5.930;2024-03-29T19:38:16;2.45;;;1.38;;
75356;SDS011;63946;51.986;5.930;2024-03-29T19:40:43;5.20;;;1.52;;
75356;SDS011;63946;51.986;5.930;2024-03-29T19:43:12;3.28;;;1.10;;
75356;SDS011;63946;51.986;5.930;2024-03-29T19:45:39;2.50;;;1.20;;
75356;SDS011;63946;51.986;5.930;2024-03-29T19:48:06;2.13;;;1.02;;
75356;SDS011;63946;51.986;5.930;2024-03-29T19:50:34;1.98;;;1.40;;
75356;SDS011;63946;51.986;5.930;2024-03-29T19:53:00;2.90;;;1.30;;
75356;SDS011;63946;51.986;5.930;2024-03-29T19:55:27;1.70;;;1.20;;
75356;SDS011;63946;51.986;5.930;2024-03-29T19:57:53;1.60;;;1.20;;
75356;SDS011;63946;51.986;5.930;2024-03-29T20:00:22;2.15;;;1.30;;
75356;SDS011;63946;51.986;5.930;2024-03-29T20:02:51;2.33;;;1.50;;
75356;SDS011;63946;51.986;5.930;2024-03-29T20:05:17;1.70;;;1.33;;
75356;SDS011;63946;51.986;5.930;2024-03-29T20:07:43;2.58;;;1.15;;
75356;SDS011;63946;51.986;5.930;2024-03-29T20:10:12;2.47;;;1.50;;
75356;SDS011;63946;51.986;5.930;2024-03-29T20:12:39;2.42;;;1.48;;
75356;SDS011;63946;51.986;5.930;2024-03-29T20:15:05;2.15;;;1.60;;
75356;SDS011;63946;51.986;5.930;2024-03-29T20:17:32;2.95;;;1.60;;
75356;SDS011;63946;51.986;5.930;2024-03-29T20:19:58;2.15;;;1.73;;
75356;SDS011;63946;51.986;5.930;2024-03-29T20:22:30;3.08;;;1.70;;
75356;SDS011;63946;51.986;5.930;2024-03-29T20:25:00;2.55;;;1.88;;
75356;SDS011;63946;51.986;5.930;2024-03-29T20:27:26;2.38;;;1.67;;
75356;SDS011;63946;51.986;5.930;2024-03-29T20:29:53;4.07;;;2.80;;
75356;SDS011;63946;51.986;5.930;2024-03-29T20:32:25;3.83;;;2.35;;
75356;SDS011;63946;51.986;5.930;2024-03-29T20:34:51;4.07;;;1.98;;
75356;SDS011;63946;51.986;5.930;2024-03-29T20:37:18;2.75;;;2.10;;
75356;SDS011;63946;51.986;5.930;2024-03-29T20:39:44;4.10;;;1.88;;
75356;SDS011;63946;51.986;5.930;2024-03-29T20:42:13;2.83;;;1.85;;
75356;SDS011;63946;51.986;5.930;2024-03-29T20:44:40;4.00;;;1.77;;
75356;SDS011;63946;51.986;5.930;2024-03-29T20:47:14;1.63;;;1.52;;
75356;SDS011;63946;51.986;5.930;2024-03-29T20:49:40;2.28;;;1.40;;
75356;SDS011;63946;51.986;5.930;2024-03-29T20:52:06;5.20;;;1.77;;